Terminal Aerodrome Forecast
Issued by NWS Sterling, VA

Home | Current Version | Previous Version | Text Only | Print | Product List | Glossary On
Versions: 1 2 3 4 5 6 7 8 9 10 11 12 13 14 15 16 17
000
FTUS41 KLWX 021457 AAA
TAFCHO
TAF AMD
KCHO 021457Z 0215/0312 VRB03KT 6SM HZ OVC050
     FM021900 VRB03KT 5SM -SHRA VCTS BKN050CB
     FM030100 00000KT P6SM -SHRA SCT050 OVC080
     FM030700 VRB03KT 3SM BR SCT050 OVC070
     FM031000 VRB03KT 2SM BR SCT015 OVC050=

USA.gov is the U.S. government's official web portal to all federal, state and local government web resources and services.